createdAt,value
2017-11-25T00:00:43.733Z,8.10
2017-11-25T00:03:12.051Z,8.10
2017-11-25T00:05:40.484Z,8.20
2017-11-25T00:08:08.868Z,8.20
2017-11-25T00:10:37.961Z,8.20
2017-11-25T00:13:07.016Z,8.20
2017-11-25T00:15:35.399Z,8.20
2017-11-25T00:18:03.687Z,8.30
2017-11-25T00:20:32.085Z,8.20
2017-11-25T00:23:01.162Z,8.30
2017-11-25T00:25:30.226Z,8.30
2017-11-25T00:27:58.563Z,8.30
2017-11-25T00:30:26.871Z,8.30
2017-11-25T00:32:55.195Z,8.30
2017-11-25T00:35:24.280Z,8.30
2017-11-25T00:37:53.204Z,8.20
2017-11-25T00:40:21.508Z,8.20
2017-11-25T00:42:49.941Z,8.20
2017-11-25T00:45:18.263Z,8.20
2017-11-25T00:47:46.595Z,8.20
2017-11-25T00:50:14.940Z,8.20
2017-11-25T00:52:43.242Z,8.20
2017-11-25T00:55:12.339Z,8.20
2017-11-25T00:57:41.405Z,8.20
2017-11-25T01:00:09.724Z,8.10
2017-11-25T01:02:38.774Z,8.20
2017-11-25T01:05:07.109Z,8.10
2017-11-25T01:07:35.461Z,8.20
2017-11-25T01:10:03.781Z,8.20
2017-11-25T01:12:32.099Z,8.20
2017-11-25T01:15:00.399Z,8.20
2017-11-25T01:17:28.764Z,8.30
2017-11-25T01:19:57.830Z,8.30
2017-11-25T01:22:26.162Z,8.30
2017-11-25T01:24:54.475Z,8.40
2017-11-25T01:27:22.866Z,8.40
2017-11-25T01:29:51.174Z,8.40
2017-11-25T01:32:20.272Z,8.40
2017-11-25T01:34:49.363Z,8.40
2017-11-25T01:37:17.691Z,8.30
2017-11-25T01:39:45.980Z,8.40
2017-11-25T01:42:14.262Z,8.40
2017-11-25T01:44:43.379Z,8.30
2017-11-25T01:47:12.451Z,8.40
2017-11-25T01:49:40.772Z,8.30
2017-11-25T01:52:09.064Z,8.40
2017-11-25T01:54:37.420Z,8.40
2017-11-25T01:57:05.739Z,8.40
2017-11-25T01:59:34.068Z,8.40
2017-11-25T02:02:03.136Z,8.40
2017-11-25T02:04:31.445Z,8.40
2017-11-25T02:06:59.760Z,8.40
2017-11-25T02:09:28.119Z,8.50
2017-11-25T02:11:56.476Z,8.50
2017-11-25T02:14:24.819Z,8.40
2017-11-25T02:16:53.132Z,8.40
2017-11-25T02:19:21.486Z,8.40
2017-11-25T02:21:49.800Z,8.30
2017-11-25T02:24:18.139Z,8.20
2017-11-25T02:26:46.456Z,8.20
2017-11-25T02:29:14.765Z,8.10
2017-11-25T02:31:43.672Z,8.10
2017-11-25T02:34:11.973Z,8.10
2017-11-25T02:36:40.325Z,8.10
2017-11-25T02:39:08.648Z,8.20
2017-11-25T02:41:36.949Z,8.20
2017-11-25T02:44:05.292Z,8.20
2017-11-25T02:46:33.579Z,8.20
2017-11-25T02:49:01.905Z,8.20
2017-11-25T02:51:30.200Z,8.30
2017-11-25T02:53:59.269Z,8.30
2017-11-25T02:56:27.596Z,8.30
2017-11-25T02:58:55.911Z,8.40
2017-11-25T03:01:24.237Z,8.30
2017-11-25T03:03:52.567Z,8.30
2017-11-25T03:06:20.881Z,8.30
2017-11-25T03:08:49.981Z,8.40
2017-11-25T03:11:19.056Z,8.40
2017-11-25T03:13:47.354Z,8.30
2017-11-25T03:16:16.459Z,8.10
2017-11-25T03:18:45.512Z,8.00
2017-11-25T03:21:13.796Z,7.90
2017-11-25T03:23:42.891Z,7.70
2017-11-25T03:26:11.283Z,7.60
2017-11-25T03:28:40.483Z,7.70
2017-11-25T03:31:09.706Z,7.60
2017-11-25T03:33:38.005Z,7.60
2017-11-25T03:36:06.291Z,7.70
2017-11-25T03:38:34.595Z,7.70
2017-11-25T03:41:02.888Z,7.70
2017-11-25T03:43:31.228Z,7.70
2017-11-25T03:46:00.007Z,7.80
2017-11-25T03:48:28.292Z,7.70
2017-11-25T03:50:56.605Z,7.80
2017-11-25T03:53:25.670Z,7.80
2017-11-25T03:55:54.010Z,7.70
2017-11-25T03:58:22.293Z,7.80
2017-11-25T04:00:50.682Z,7.80
2017-11-25T04:03:18.972Z,7.80
2017-11-25T04:05:47.278Z,7.80
2017-11-25T04:08:16.340Z,7.80
2017-11-25T04:10:44.656Z,7.80
2017-11-25T04:13:12.994Z,7.80
2017-11-25T04:15:41.402Z,7.80
2017-11-25T04:18:10.495Z,7.70
2017-11-25T04:20:38.787Z,7.60
2017-11-25T04:23:07.865Z,7.70
2017-11-25T04:25:36.932Z,7.60
2017-11-25T04:28:05.268Z,7.60
2017-11-25T04:30:33.571Z,7.60
2017-11-25T04:33:01.888Z,7.60
2017-11-25T04:35:30.959Z,7.60
2017-11-25T04:37:59.359Z,7.60
2017-11-25T04:40:27.738Z,7.60
2017-11-25T04:42:56.795Z,7.60
2017-11-25T04:45:25.214Z,7.50
2017-11-25T04:47:54.998Z,7.50
2017-11-25T04:50:23.345Z,7.50
2017-11-25T04:52:51.640Z,7.60
2017-11-25T04:55:19.945Z,7.70
2017-11-25T04:57:49.016Z,7.60
2017-11-25T05:00:18.117Z,7.60
2017-11-25T05:02:46.410Z,7.60
2017-11-25T05:05:14.748Z,7.60
2017-11-25T05:07:43.043Z,7.60
2017-11-25T05:10:11.340Z,7.60
2017-11-25T05:12:40.435Z,7.50
2017-11-25T05:15:09.506Z,7.50
2017-11-25T05:17:37.852Z,7.50
2017-11-25T05:20:06.165Z,7.40
2017-11-25T05:22:34.501Z,7.30
2017-11-25T05:25:02.806Z,7.30
2017-11-25T05:27:31.329Z,7.20
2017-11-25T05:30:00.409Z,7.10
2017-11-25T05:32:29.480Z,7.10
2017-11-25T05:34:58.629Z,7.00
2017-11-25T05:37:27.704Z,7.10
2017-11-25T05:39:56.910Z,7.10
2017-11-25T05:42:25.288Z,7.00
2017-11-25T05:44:53.659Z,7.10
2017-11-25T05:47:23.016Z,7.00
2017-11-25T05:49:51.340Z,6.90
2017-11-25T05:52:20.401Z,7.10
2017-11-25T05:54:48.804Z,7.00
2017-11-25T05:57:17.091Z,7.00
2017-11-25T05:59:46.176Z,6.90
2017-11-25T06:02:14.554Z,6.90
2017-11-25T06:04:42.842Z,6.90
2017-11-25T06:07:11.911Z,6.90
2017-11-25T06:09:41.021Z,6.80
2017-11-25T06:12:10.136Z,6.80
2017-11-25T06:14:38.439Z,6.70
2017-11-25T06:17:06.728Z,6.80
2017-11-25T06:19:35.069Z,6.70
2017-11-25T06:22:03.374Z,6.70
2017-11-25T06:24:31.724Z,6.70
2017-11-25T06:27:00.049Z,6.80
2017-11-25T06:29:28.383Z,6.80
2017-11-25T06:31:56.671Z,6.80
2017-11-25T06:34:25.007Z,6.80
2017-11-25T06:36:54.265Z,6.70
2017-11-25T06:39:22.591Z,6.70
2017-11-25T06:41:50.913Z,6.70
2017-11-25T06:44:19.217Z,6.70
2017-11-25T06:46:47.538Z,6.70
2017-11-25T06:49:15.857Z,6.60
2017-11-25T06:51:44.195Z,6.60
2017-11-25T06:54:13.232Z,6.60
2017-11-25T06:56:41.523Z,6.50
2017-11-25T06:59:10.615Z,6.60
2017-11-25T07:01:39.724Z,6.60
2017-11-25T07:04:08.817Z,6.50
2017-11-25T07:06:37.139Z,6.50
2017-11-25T07:09:05.443Z,6.50
2017-11-25T07:11:33.772Z,6.40
2017-11-25T07:14:02.101Z,6.30
2017-11-25T07:16:30.397Z,6.20
2017-11-25T07:18:58.744Z,6.00
2017-11-25T07:21:27.025Z,6.00
2017-11-25T07:23:55.343Z,5.90
2017-11-25T07:26:23.679Z,5.70
2017-11-25T07:28:52.104Z,5.70
2017-11-25T07:31:21.198Z,5.50
2017-11-25T07:33:49.528Z,5.40
2017-11-25T07:36:17.821Z,5.40
2017-11-25T07:38:46.224Z,5.30
2017-11-25T07:41:14.527Z,5.20
2017-11-25T07:43:42.979Z,5.10
2017-11-25T07:46:11.306Z,5.10
2017-11-25T07:48:39.667Z,5.10
2017-11-25T07:51:07.972Z,5.10
2017-11-25T07:53:36.288Z,5.10
2017-11-25T07:56:04.605Z,5.10
2017-11-25T07:58:32.959Z,5.10
2017-11-25T08:01:01.273Z,5.20
2017-11-25T08:03:29.579Z,5.30
2017-11-25T08:05:59.568Z,5.30
2017-11-25T08:08:27.866Z,5.30
2017-11-25T08:10:56.969Z,5.30
2017-11-25T08:13:25.751Z,5.20
2017-11-25T08:15:54.072Z,5.30
2017-11-25T08:18:22.403Z,5.40
2017-11-25T08:20:50.721Z,5.40
2017-11-25T08:23:19.007Z,5.40
2017-11-25T08:25:47.325Z,5.50
2017-11-25T08:28:15.604Z,5.50
2017-11-25T08:30:44.704Z,5.50
2017-11-25T08:33:13.018Z,5.50
2017-11-25T08:35:41.344Z,5.50
2017-11-25T08:38:10.440Z,5.50
2017-11-25T08:40:38.827Z,5.50
2017-11-25T08:43:07.132Z,5.50
2017-11-25T08:45:35.456Z,5.50
2017-11-25T08:48:03.792Z,5.40
2017-11-25T08:50:32.107Z,5.50
2017-11-25T08:53:00.407Z,5.50
2017-11-25T08:55:29.537Z,5.50
2017-11-25T08:57:57.876Z,5.40
2017-11-25T09:00:26.160Z,5.50
2017-11-25T09:02:55.254Z,5.50
2017-11-25T09:05:23.560Z,5.40
2017-11-25T09:07:51.888Z,5.50
2017-11-25T09:10:20.241Z,5.40
2017-11-25T09:12:48.540Z,5.40
2017-11-25T09:15:16.876Z,5.40
2017-11-25T09:17:45.201Z,5.40
2017-11-25T09:20:14.312Z,5.40
2017-11-25T09:22:43.398Z,5.40
2017-11-25T09:25:11.676Z,5.30
2017-11-25T09:27:40.037Z,5.30
2017-11-25T09:30:08.332Z,5.40
2017-11-25T09:32:37.428Z,5.30
2017-11-25T09:35:05.773Z,5.30
2017-11-25T09:37:34.092Z,5.40
2017-11-25T09:40:02.397Z,5.50
2017-11-25T09:42:30.725Z,5.50
2017-11-25T09:44:59.054Z,5.40
2017-11-25T09:47:27.355Z,5.40
2017-11-25T09:49:55.692Z,5.50
2017-11-25T09:52:23.988Z,5.50
2017-11-25T09:54:52.380Z,5.50
2017-11-25T09:57:21.486Z,5.60
2017-11-25T09:59:49.855Z,5.50
2017-11-25T10:02:18.179Z,5.50
2017-11-25T10:04:46.491Z,5.50
2017-11-25T10:07:14.792Z,5.50
2017-11-25T10:09:43.150Z,5.50
2017-11-25T10:12:11.447Z,5.50
2017-11-25T10:14:39.783Z,5.50
2017-11-25T10:17:08.144Z,5.60
2017-11-25T10:19:37.208Z,5.60
2017-11-25T10:22:05.531Z,5.50
2017-11-25T10:24:33.824Z,5.60
2017-11-25T10:27:02.272Z,5.60
2017-11-25T10:29:30.574Z,5.60
2017-11-25T10:31:58.897Z,5.80
2017-11-25T10:34:27.196Z,5.80
2017-11-25T10:36:55.516Z,5.90
2017-11-25T10:39:23.812Z,6.00
2017-11-25T10:41:52.157Z,6.00
2017-11-25T10:44:20.452Z,5.90
2017-11-25T10:46:48.765Z,5.80
2017-11-25T10:49:17.197Z,5.70
2017-11-25T10:51:45.515Z,5.60
2017-11-25T10:54:13.873Z,5.60
2017-11-25T10:56:42.270Z,5.60
2017-11-25T10:59:10.674Z,5.70
2017-11-25T11:01:39.048Z,5.80
2017-11-25T11:04:08.267Z,5.90
2017-11-25T11:06:36.663Z,5.90
2017-11-25T11:09:05.004Z,5.90
2017-11-25T11:11:33.359Z,5.80
2017-11-25T11:14:01.691Z,5.80
2017-11-25T11:16:30.110Z,5.70
2017-11-25T11:18:58.417Z,5.50
2017-11-25T11:21:26.752Z,5.50
2017-11-25T11:23:55.092Z,5.50
2017-11-25T11:26:23.459Z,5.50
2017-11-25T11:28:51.761Z,5.50
2017-11-25T11:31:20.089Z,5.50
2017-11-25T11:33:49.611Z,5.60
2017-11-25T11:36:18.051Z,5.50
2017-11-25T11:38:47.155Z,5.60
2017-11-25T11:41:15.468Z,5.50
2017-11-25T11:43:43.787Z,5.60
2017-11-25T11:46:12.080Z,5.60
2017-11-25T11:48:41.482Z,5.60
2017-11-25T11:51:09.791Z,5.70
2017-11-25T11:53:38.875Z,5.80
2017-11-25T11:56:07.176Z,5.70
2017-11-25T11:58:35.522Z,5.80
2017-11-25T12:01:04.132Z,5.80
2017-11-25T12:03:32.438Z,5.80
2017-11-25T12:06:00.753Z,5.90
2017-11-25T12:08:29.836Z,6.00
2017-11-25T12:10:58.172Z,5.90
2017-11-25T12:13:26.472Z,6.10
2017-11-25T12:15:54.817Z,6.10
2017-11-25T12:18:23.113Z,6.20
2017-11-25T12:20:51.417Z,6.20
2017-11-25T12:23:19.749Z,6.30
2017-11-25T12:25:48.048Z,6.40
2017-11-25T12:28:16.370Z,6.50
2017-11-25T12:30:45.451Z,6.60
2017-11-25T12:33:14.562Z,6.50
2017-11-25T12:35:42.844Z,6.50
2017-11-25T12:38:11.918Z,6.60
2017-11-25T12:40:40.239Z,6.50
2017-11-25T12:43:08.527Z,6.60
2017-11-25T12:45:37.340Z,6.60
2017-11-25T12:48:05.639Z,6.50
2017-11-25T12:50:33.972Z,6.50
2017-11-25T12:53:02.324Z,6.50
2017-11-25T12:55:30.635Z,6.50
2017-11-25T12:57:58.968Z,6.60
2017-11-25T13:00:27.339Z,6.60
2017-11-25T13:02:55.635Z,6.60
2017-11-25T13:05:24.686Z,6.60
2017-11-25T13:07:52.990Z,6.60
2017-11-25T13:10:22.058Z,6.60
2017-11-25T13:12:50.359Z,6.50
2017-11-25T13:15:19.407Z,6.70
2017-11-25T13:17:47.716Z,6.60
2017-11-25T13:20:16.000Z,6.70
2017-11-25T13:22:44.324Z,6.60
2017-11-25T13:25:12.656Z,6.60
2017-11-25T13:27:41.782Z,6.60
2017-11-25T13:30:10.089Z,6.60
2017-11-25T13:32:38.356Z,6.60
2017-11-25T13:35:06.687Z,6.50
2017-11-25T13:37:35.000Z,6.40
2017-11-25T13:40:03.326Z,6.30
2017-11-25T13:42:31.656Z,6.20
2017-11-25T13:45:00.113Z,6.20
2017-11-25T13:47:28.397Z,6.20
2017-11-25T13:49:56.744Z,6.20
2017-11-25T13:52:25.801Z,6.20
2017-11-25T13:54:54.153Z,6.10
2017-11-25T13:57:22.464Z,6.20
2017-11-25T13:59:50.745Z,6.20
2017-11-25T14:02:19.068Z,6.20
2017-11-25T14:04:47.365Z,6.20
2017-11-25T14:07:15.688Z,6.20
2017-11-25T14:09:43.998Z,6.20
2017-11-25T14:12:12.321Z,6.10
2017-11-25T14:14:40.606Z,6.20
2017-11-25T14:17:09.742Z,6.30
2017-11-25T14:19:39.291Z,6.30
2017-11-25T14:22:07.652Z,6.30
2017-11-25T14:24:37.207Z,6.30
2017-11-25T14:27:05.738Z,6.30
2017-11-25T14:29:34.046Z,6.30
2017-11-25T14:32:02.362Z,6.30
2017-11-25T14:34:30.707Z,6.30
2017-11-25T14:36:59.080Z,6.20
2017-11-25T14:39:27.406Z,6.20
2017-11-25T14:41:55.700Z,6.20
2017-11-25T14:44:23.995Z,6.20
2017-11-25T14:46:52.336Z,6.20
2017-11-25T14:49:20.671Z,6.20
2017-11-25T14:51:49.393Z,6.20
2017-11-25T14:54:17.705Z,6.10
2017-11-25T14:56:46.113Z,6.00
2017-11-25T14:59:15.254Z,5.90
2017-11-25T15:01:44.403Z,5.80
2017-11-25T15:04:12.863Z,5.80
2017-11-25T15:06:41.314Z,5.80
2017-11-25T15:09:09.770Z,5.70
2017-11-25T15:11:38.468Z,5.70
2017-11-25T15:14:06.781Z,5.70
2017-11-25T15:16:35.105Z,5.70
2017-11-25T15:19:04.203Z,5.60
2017-11-25T15:21:32.551Z,5.50
2017-11-25T15:24:01.656Z,5.40
2017-11-25T15:26:30.793Z,5.40
2017-11-25T15:28:59.142Z,5.40
2017-11-25T15:31:27.607Z,5.40
2017-11-25T15:33:55.935Z,5.40
2017-11-25T15:36:24.253Z,5.40
2017-11-25T15:38:53.348Z,5.40
2017-11-25T15:41:21.752Z,5.40
2017-11-25T15:43:50.028Z,5.40
2017-11-25T15:46:19.536Z,5.40
2017-11-25T15:48:47.842Z,5.40
2017-11-25T15:51:17.113Z,5.40
2017-11-25T15:53:46.299Z,5.40
2017-11-25T15:56:15.423Z,5.40
2017-11-25T15:58:43.764Z,5.30
2017-11-25T16:01:12.945Z,5.30
2017-11-25T16:03:41.264Z,5.20
2017-11-25T16:06:09.573Z,5.20
2017-11-25T16:08:37.937Z,5.20
2017-11-25T16:11:06.315Z,5.10
2017-11-25T16:13:34.623Z,5.10
2017-11-25T16:16:03.796Z,5.00
2017-11-25T16:18:32.138Z,5.00
2017-11-25T16:21:00.555Z,5.10
2017-11-25T16:23:28.896Z,5.00
2017-11-25T16:25:57.288Z,5.00
2017-11-25T16:28:25.638Z,5.00
2017-11-25T16:30:54.058Z,5.00
2017-11-25T16:33:22.551Z,5.00
2017-11-25T16:35:50.956Z,5.10
2017-11-25T16:38:19.250Z,5.10
2017-11-25T16:40:47.740Z,5.10
2017-11-25T16:43:16.088Z,5.10
2017-11-25T16:45:45.204Z,5.10
2017-11-25T16:48:15.492Z,5.10
2017-11-25T16:50:44.628Z,5.10
2017-11-25T16:53:12.946Z,5.00
2017-11-25T16:55:41.329Z,5.10
2017-11-25T16:58:09.624Z,5.20
2017-11-25T17:00:37.939Z,5.10
2017-11-25T17:03:06.412Z,5.10
2017-11-25T17:05:35.478Z,5.20
2017-11-25T17:08:03.839Z,5.10
2017-11-25T17:10:32.988Z,5.20
2017-11-25T17:13:02.055Z,5.20
2017-11-25T17:15:31.248Z,5.20
2017-11-25T17:17:59.563Z,5.10
2017-11-25T17:20:27.956Z,5.10
2017-11-25T17:22:56.301Z,5.20
2017-11-25T17:25:25.364Z,5.30
2017-11-25T17:27:53.694Z,5.20
2017-11-25T17:30:22.106Z,5.30
2017-11-25T17:32:50.395Z,5.30
2017-11-25T17:35:18.830Z,5.30
2017-11-25T17:37:47.972Z,5.40
2017-11-25T17:40:16.552Z,5.30
2017-11-25T17:42:44.933Z,5.40
2017-11-25T17:45:13.465Z,5.40
2017-11-25T17:47:41.775Z,5.40
2017-11-25T17:50:10.137Z,5.30
2017-11-25T17:52:38.452Z,5.30
2017-11-25T17:55:06.856Z,5.30
2017-11-25T17:57:35.179Z,5.20
2017-11-25T18:00:03.510Z,5.30
2017-11-25T18:02:31.866Z,5.20
2017-11-25T18:05:00.163Z,5.20
2017-11-25T18:07:29.251Z,5.10
2017-11-25T18:09:58.311Z,5.10
2017-11-25T18:12:26.639Z,5.00
2017-11-25T18:14:54.943Z,5.00
2017-11-25T18:17:23.273Z,5.00
2017-11-25T18:19:51.663Z,5.00
2017-11-25T18:22:20.771Z,5.00
2017-11-25T18:24:49.064Z,5.00
2017-11-25T18:27:17.356Z,5.00
2017-11-25T18:29:45.674Z,5.00
2017-11-25T18:32:13.996Z,5.00
2017-11-25T18:34:42.332Z,4.90
2017-11-25T18:37:10.644Z,4.90
2017-11-25T18:39:38.964Z,4.80
2017-11-25T18:42:07.255Z,4.80
2017-11-25T18:44:36.350Z,4.80
2017-11-25T18:47:04.667Z,4.70
2017-11-25T18:49:33.007Z,4.70
2017-11-25T18:52:01.350Z,4.70
2017-11-25T18:54:29.661Z,4.70
2017-11-25T18:56:57.968Z,4.70
2017-11-25T18:59:26.263Z,4.60
2017-11-25T19:01:54.612Z,4.60
2017-11-25T19:04:22.922Z,4.50
2017-11-25T19:06:51.224Z,4.50
2017-11-25T19:09:19.511Z,4.50
2017-11-25T19:11:47.820Z,4.40
2017-11-25T19:14:16.120Z,4.40
2017-11-25T19:16:44.449Z,4.40
2017-11-25T19:19:12.762Z,4.30
2017-11-25T19:21:41.078Z,4.30
2017-11-25T19:24:09.406Z,4.30
2017-11-25T19:26:37.711Z,4.30
2017-11-25T19:29:06.040Z,4.30
2017-11-25T19:31:34.355Z,4.30
2017-11-25T19:34:02.689Z,4.30
2017-11-25T19:36:31.010Z,4.30
2017-11-25T19:38:59.393Z,4.20
2017-11-25T19:41:27.699Z,4.30
2017-11-25T19:43:56.787Z,4.20
2017-11-25T19:46:25.898Z,4.20
2017-11-25T19:48:54.984Z,4.20
2017-11-25T19:51:24.079Z,4.20
2017-11-25T19:53:52.388Z,4.10
2017-11-25T19:56:20.831Z,4.20
2017-11-25T19:58:49.189Z,4.20
2017-11-25T20:01:17.496Z,4.20
2017-11-25T20:03:45.797Z,4.20
2017-11-25T20:06:14.884Z,4.10
2017-11-25T20:08:43.927Z,4.20
2017-11-25T20:11:12.242Z,4.10
2017-11-25T20:13:40.563Z,4.10
2017-11-25T20:16:08.875Z,4.10
2017-11-25T20:18:37.179Z,4.10
2017-11-25T20:21:06.284Z,4.00
2017-11-25T20:23:34.579Z,4.00
2017-11-25T20:26:02.872Z,4.00
2017-11-25T20:28:31.192Z,4.10
2017-11-25T20:30:59.588Z,4.00
2017-11-25T20:33:28.675Z,4.00
2017-11-25T20:35:57.732Z,4.00
2017-11-25T20:38:26.083Z,4.00
2017-11-25T20:40:54.408Z,4.00
2017-11-25T20:43:23.500Z,4.10
2017-11-25T20:45:51.840Z,4.10
2017-11-25T20:48:20.123Z,4.10
2017-11-25T20:50:48.452Z,4.20
2017-11-25T20:53:17.508Z,4.20
2017-11-25T20:55:45.837Z,4.10
2017-11-25T20:58:14.131Z,4.20
2017-11-25T21:00:42.428Z,4.20
2017-11-25T21:03:10.740Z,4.20
2017-11-25T21:05:39.040Z,4.20
2017-11-25T21:08:08.115Z,4.20
2017-11-25T21:10:36.387Z,4.10
2017-11-25T21:13:04.694Z,4.20
2017-11-25T21:15:33.012Z,4.30
2017-11-25T21:18:01.367Z,4.30
2017-11-25T21:20:29.669Z,4.30
2017-11-25T21:22:58.001Z,4.20
2017-11-25T21:25:26.304Z,4.20
2017-11-25T21:27:54.634Z,4.20
2017-11-25T21:30:23.732Z,4.20
2017-11-25T21:32:52.820Z,4.20
2017-11-25T21:35:21.924Z,4.20
2017-11-25T21:37:51.000Z,4.20
2017-11-25T21:40:20.101Z,4.20
2017-11-25T21:42:49.191Z,4.10
2017-11-25T21:45:18.315Z,4.20
2017-11-25T21:47:47.376Z,4.20
2017-11-25T21:50:15.677Z,4.10
2017-11-25T21:52:44.016Z,4.20
2017-11-25T21:55:12.316Z,4.20
2017-11-25T21:57:40.657Z,4.20
2017-11-25T22:00:08.964Z,4.20
2017-11-25T22:02:37.452Z,4.20
2017-11-25T22:05:06.552Z,4.30
2017-11-25T22:07:35.627Z,4.30
2017-11-25T22:10:03.952Z,4.20
2017-11-25T22:12:32.267Z,4.20
2017-11-25T22:15:00.581Z,4.20
2017-11-25T22:17:28.907Z,4.20
2017-11-25T22:19:58.150Z,4.20
2017-11-25T22:22:26.531Z,4.20
2017-11-25T22:24:55.608Z,4.10
2017-11-25T22:27:23.905Z,4.00
2017-11-25T22:29:52.227Z,4.10
2017-11-25T22:32:20.551Z,4.00
2017-11-25T22:34:48.836Z,4.00
2017-11-25T22:37:17.916Z,4.00
2017-11-25T22:39:46.193Z,3.90
2017-11-25T22:42:14.500Z,4.00
2017-11-25T22:44:43.742Z,4.00
2017-11-25T22:47:12.068Z,4.00
2017-11-25T22:49:40.371Z,4.00
2017-11-25T22:52:08.729Z,4.00
2017-11-25T22:54:37.067Z,4.00
2017-11-25T22:57:06.136Z,4.10
2017-11-25T22:59:35.266Z,4.10
2017-11-25T23:02:03.552Z,4.00
2017-11-25T23:04:31.892Z,4.10
2017-11-25T23:07:00.183Z,4.10
2017-11-25T23:09:29.271Z,4.10
2017-11-25T23:11:58.363Z,4.10
2017-11-25T23:14:26.678Z,4.00
2017-11-25T23:16:54.979Z,4.10
2017-11-25T23:19:23.317Z,4.10
2017-11-25T23:21:52.373Z,4.00
2017-11-25T23:24:20.791Z,3.90
2017-11-25T23:26:49.888Z,3.90
2017-11-25T23:29:18.240Z,3.80
2017-11-25T23:31:46.576Z,3.90
2017-11-25T23:34:15.649Z,3.80
2017-11-25T23:36:43.969Z,3.80
2017-11-25T23:39:12.272Z,3.80
2017-11-25T23:41:40.581Z,3.80
2017-11-25T23:44:08.888Z,3.70
2017-11-25T23:46:37.276Z,3.70
2017-11-25T23:49:05.579Z,3.60
2017-11-25T23:51:33.910Z,3.60
2017-11-25T23:54:02.223Z,3.60
2017-11-25T23:56:30.514Z,3.60
2017-11-25T23:58:59.603Z,3.60
